sensor_id;sensor_type;location;lat;lon;timestamp;P1;durP1;ratioP1;P2;durP2;ratioP2
68144;SDS011;55400;51.824;-0.196;2023-09-19T00:03:36;3.70;;;1.00;;
68144;SDS011;55400;51.824;-0.196;2023-09-19T00:07:36;2.40;;;1.10;;
68144;SDS011;55400;51.824;-0.196;2023-09-19T00:11:36;2.50;;;1.30;;
68144;SDS011;55400;51.824;-0.196;2023-09-19T00:15:38;11.50;;;1.70;;
68144;SDS011;55400;51.824;-0.196;2023-09-19T00:19:36;4.90;;;1.50;;
68144;SDS011;55400;51.824;-0.196;2023-09-19T00:23:36;4.30;;;1.10;;
68144;SDS011;55400;51.824;-0.196;2023-09-19T00:27:36;3.50;;;1.50;;
68144;SDS011;55400;51.824;-0.196;2023-09-19T00:31:36;3.10;;;1.30;;
68144;SDS011;55400;51.824;-0.196;2023-09-19T00:35:36;2.70;;;1.20;;
68144;SDS011;55400;51.824;-0.196;2023-09-19T00:39:36;4.90;;;1.20;;
68144;SDS011;55400;51.824;-0.196;2023-09-19T00:43:36;2.90;;;1.10;;
68144;SDS011;55400;51.824;-0.196;2023-09-19T00:51:36;5.40;;;1.40;;
68144;SDS011;55400;51.824;-0.196;2023-09-19T00:55:37;5.10;;;1.50;;
68144;SDS011;55400;51.824;-0.196;2023-09-19T00:59:36;6.90;;;1.30;;
68144;SDS011;55400;51.824;-0.196;2023-09-19T01:03:36;2.40;;;1.40;;
68144;SDS011;55400;51.824;-0.196;2023-09-19T01:07:36;4.80;;;1.50;;
68144;SDS011;55400;51.824;-0.196;2023-09-19T01:11:39;5.10;;;1.30;;
68144;SDS011;55400;51.824;-0.196;2023-09-19T01:15:43;9.30;;;1.60;;
68144;SDS011;55400;51.824;-0.196;2023-09-19T01:19:54;4.30;;;1.40;;
68144;SDS011;55400;51.824;-0.196;2023-09-19T01:23:48;6.40;;;1.60;;
68144;SDS011;55400;51.824;-0.196;2023-09-19T01:31:37;2.90;;;1.30;;
68144;SDS011;55400;51.824;-0.196;2023-09-19T01:35:37;6.00;;;1.60;;
68144;SDS011;55400;51.824;-0.196;2023-09-19T01:39:36;6.10;;;1.80;;
68144;SDS011;55400;51.824;-0.196;2023-09-19T01:47:46;6.60;;;1.70;;
68144;SDS011;55400;51.824;-0.196;2023-09-19T01:51:42;4.80;;;1.30;;
68144;SDS011;55400;51.824;-0.196;2023-09-19T01:55:41;6.50;;;1.80;;
68144;SDS011;55400;51.824;-0.196;2023-09-19T01:59:41;5.10;;;1.90;;
68144;SDS011;55400;51.824;-0.196;2023-09-19T02:07:38;8.50;;;2.00;;
68144;SDS011;55400;51.824;-0.196;2023-09-19T02:11:36;8.10;;;2.00;;
68144;SDS011;55400;51.824;-0.196;2023-09-19T02:15:36;5.90;;;2.00;;
68144;SDS011;55400;51.824;-0.196;2023-09-19T02:19:36;4.90;;;1.60;;
68144;SDS011;55400;51.824;-0.196;2023-09-19T02:23:36;4.70;;;1.70;;
68144;SDS011;55400;51.824;-0.196;2023-09-19T02:27:50;6.40;;;1.80;;
68144;SDS011;55400;51.824;-0.196;2023-09-19T02:31:36;3.90;;;1.60;;
68144;SDS011;55400;51.824;-0.196;2023-09-19T02:35:36;6.40;;;1.70;;
68144;SDS011;55400;51.824;-0.196;2023-09-19T02:39:46;5.60;;;2.00;;
68144;SDS011;55400;51.824;-0.196;2023-09-19T02:43:36;4.40;;;1.60;;
68144;SDS011;55400;51.824;-0.196;2023-09-19T02:47:36;6.40;;;1.70;;
68144;SDS011;55400;51.824;-0.196;2023-09-19T02:51:36;8.40;;;2.00;;
68144;SDS011;55400;51.824;-0.196;2023-09-19T02:55:37;4.80;;;1.50;;
68144;SDS011;55400;51.824;-0.196;2023-09-19T02:59:36;5.50;;;1.80;;
68144;SDS011;55400;51.824;-0.196;2023-09-19T03:03:37;8.70;;;2.20;;
68144;SDS011;55400;51.824;-0.196;2023-09-19T03:07:36;5.40;;;1.60;;
68144;SDS011;55400;51.824;-0.196;2023-09-19T03:11:37;5.40;;;1.70;;
68144;SDS011;55400;51.824;-0.196;2023-09-19T03:15:41;6.90;;;1.70;;
68144;SDS011;55400;51.824;-0.196;2023-09-19T03:19:37;8.00;;;2.00;;
68144;SDS011;55400;51.824;-0.196;2023-09-19T03:23:36;7.10;;;2.50;;
68144;SDS011;55400;51.824;-0.196;2023-09-19T03:31:37;8.80;;;2.00;;
68144;SDS011;55400;51.824;-0.196;2023-09-19T03:35:37;7.30;;;1.80;;
68144;SDS011;55400;51.824;-0.196;2023-09-19T03:39:37;4.50;;;1.70;;
68144;SDS011;55400;51.824;-0.196;2023-09-19T03:43:37;4.80;;;1.50;;
68144;SDS011;55400;51.824;-0.196;2023-09-19T03:47:37;6.40;;;1.80;;
68144;SDS011;55400;51.824;-0.196;2023-09-19T03:51:37;5.80;;;1.90;;
68144;SDS011;55400;51.824;-0.196;2023-09-19T03:55:37;5.80;;;1.60;;
68144;SDS011;55400;51.824;-0.196;2023-09-19T04:03:37;4.50;;;1.60;;
68144;SDS011;55400;51.824;-0.196;2023-09-19T04:07:37;6.20;;;1.90;;
68144;SDS011;55400;51.824;-0.196;2023-09-19T04:11:37;8.50;;;1.80;;
68144;SDS011;55400;51.824;-0.196;2023-09-19T04:15:37;5.10;;;1.70;;
68144;SDS011;55400;51.824;-0.196;2023-09-19T04:19:39;5.20;;;1.60;;
68144;SDS011;55400;51.824;-0.196;2023-09-19T04:23:37;6.60;;;1.50;;
68144;SDS011;55400;51.824;-0.196;2023-09-19T04:27:37;7.30;;;2.00;;
68144;SDS011;55400;51.824;-0.196;2023-09-19T04:35:37;7.00;;;1.90;;
68144;SDS011;55400;51.824;-0.196;2023-09-19T04:39:37;6.30;;;2.00;;
68144;SDS011;55400;51.824;-0.196;2023-09-19T04:43:37;5.20;;;1.60;;
68144;SDS011;55400;51.824;-0.196;2023-09-19T04:47:37;4.70;;;1.90;;
68144;SDS011;55400;51.824;-0.196;2023-09-19T04:51:37;7.80;;;1.70;;
68144;SDS011;55400;51.824;-0.196;2023-09-19T04:55:37;5.00;;;1.70;;
68144;SDS011;55400;51.824;-0.196;2023-09-19T04:59:37;3.30;;;1.10;;
68144;SDS011;55400;51.824;-0.196;2023-09-19T05:03:37;3.30;;;1.10;;
68144;SDS011;55400;51.824;-0.196;2023-09-19T05:07:38;3.60;;;1.40;;
68144;SDS011;55400;51.824;-0.196;2023-09-19T05:11:37;5.70;;;1.50;;
68144;SDS011;55400;51.824;-0.196;2023-09-19T05:15:37;6.90;;;1.40;;
68144;SDS011;55400;51.824;-0.196;2023-09-19T05:19:37;5.80;;;1.60;;
68144;SDS011;55400;51.824;-0.196;2023-09-19T05:23:37;6.50;;;1.30;;
68144;SDS011;55400;51.824;-0.196;2023-09-19T05:27:37;6.40;;;1.70;;
68144;SDS011;55400;51.824;-0.196;2023-09-19T05:31:37;7.80;;;1.50;;
68144;SDS011;55400;51.824;-0.196;2023-09-19T05:35:44;3.00;;;1.30;;
68144;SDS011;55400;51.824;-0.196;2023-09-19T05:44:01;2.80;;;1.30;;
68144;SDS011;55400;51.824;-0.196;2023-09-19T05:48:08;3.20;;;1.30;;
68144;SDS011;55400;51.824;-0.196;2023-09-19T05:56:55;unknown;;;unknown;;
68144;SDS011;55400;51.824;-0.196;2023-09-19T06:00:27;4.40;;;1.20;;
68144;SDS011;55400;51.824;-0.196;2023-09-19T06:04:27;6.10;;;1.80;;
68144;SDS011;55400;51.824;-0.196;2023-09-19T06:08:27;4.30;;;1.40;;
68144;SDS011;55400;51.824;-0.196;2023-09-19T06:12:27;5.10;;;1.50;;
68144;SDS011;55400;51.824;-0.196;2023-09-19T06:20:27;7.50;;;1.20;;
68144;SDS011;55400;51.824;-0.196;2023-09-19T06:24:27;5.80;;;1.40;;
68144;SDS011;55400;51.824;-0.196;2023-09-19T06:28:27;7.70;;;1.50;;
68144;SDS011;55400;51.824;-0.196;2023-09-19T06:32:27;5.80;;;1.20;;
68144;SDS011;55400;51.824;-0.196;2023-09-19T06:36:27;4.70;;;1.50;;
68144;SDS011;55400;51.824;-0.196;2023-09-19T06:44:27;6.20;;;1.90;;
68144;SDS011;55400;51.824;-0.196;2023-09-19T06:49:11;3.50;;;1.20;;
68144;SDS011;55400;51.824;-0.196;2023-09-19T06:52:28;4.80;;;1.30;;
68144;SDS011;55400;51.824;-0.196;2023-09-19T06:56:27;5.80;;;1.40;;
68144;SDS011;55400;51.824;-0.196;2023-09-19T07:00:28;5.40;;;1.60;;
68144;SDS011;55400;51.824;-0.196;2023-09-19T07:04:27;5.50;;;2.20;;
68144;SDS011;55400;51.824;-0.196;2023-09-19T07:08:27;5.30;;;1.60;;
68144;SDS011;55400;51.824;-0.196;2023-09-19T07:12:27;6.10;;;1.30;;
68144;SDS011;55400;51.824;-0.196;2023-09-19T07:16:28;4.70;;;1.40;;
68144;SDS011;55400;51.824;-0.196;2023-09-19T07:24:27;4.50;;;1.30;;
68144;SDS011;55400;51.824;-0.196;2023-09-19T07:28:27;4.30;;;1.20;;
68144;SDS011;55400;51.824;-0.196;2023-09-19T07:32:27;2.90;;;1.10;;
68144;SDS011;55400;51.824;-0.196;2023-09-19T07:36:28;3.80;;;1.00;;
68144;SDS011;55400;51.824;-0.196;2023-09-19T07:40:28;2.40;;;0.90;;
68144;SDS011;55400;51.824;-0.196;2023-09-19T07:44:27;4.70;;;1.60;;
68144;SDS011;55400;51.824;-0.196;2023-09-19T07:48:27;3.00;;;1.20;;
68144;SDS011;55400;51.824;-0.196;2023-09-19T07:52:27;4.20;;;1.30;;
68144;SDS011;55400;51.824;-0.196;2023-09-19T07:56:28;4.10;;;1.50;;
68144;SDS011;55400;51.824;-0.196;2023-09-19T08:00:27;3.60;;;1.40;;
68144;SDS011;55400;51.824;-0.196;2023-09-19T08:04:27;4.80;;;1.40;;
68144;SDS011;55400;51.824;-0.196;2023-09-19T08:08:27;3.10;;;1.20;;
68144;SDS011;55400;51.824;-0.196;2023-09-19T08:12:27;7.30;;;1.70;;
68144;SDS011;55400;51.824;-0.196;2023-09-19T08:16:27;5.70;;;1.70;;
68144;SDS011;55400;51.824;-0.196;2023-09-19T08:20:27;3.50;;;1.30;;
68144;SDS011;55400;51.824;-0.196;2023-09-19T08:24:28;5.50;;;1.80;;
68144;SDS011;55400;51.824;-0.196;2023-09-19T08:28:28;5.70;;;1.70;;
68144;SDS011;55400;51.824;-0.196;2023-09-19T08:32:28;5.20;;;1.60;;
68144;SDS011;55400;51.824;-0.196;2023-09-19T08:36:27;5.20;;;1.60;;
68144;SDS011;55400;51.824;-0.196;2023-09-19T08:40:27;4.10;;;1.40;;
68144;SDS011;55400;51.824;-0.196;2023-09-19T08:44:28;5.20;;;2.00;;
68144;SDS011;55400;51.824;-0.196;2023-09-19T08:48:28;4.20;;;1.40;;
68144;SDS011;55400;51.824;-0.196;2023-09-19T08:52:32;6.70;;;1.80;;
68144;SDS011;55400;51.824;-0.196;2023-09-19T08:56:28;5.60;;;1.70;;
68144;SDS011;55400;51.824;-0.196;2023-09-19T09:00:28;5.20;;;1.80;;
68144;SDS011;55400;51.824;-0.196;2023-09-19T09:04:27;4.50;;;1.60;;
68144;SDS011;55400;51.824;-0.196;2023-09-19T09:08:30;5.50;;;1.90;;
68144;SDS011;55400;51.824;-0.196;2023-09-19T09:12:29;4.90;;;1.60;;
68144;SDS011;55400;51.824;-0.196;2023-09-19T09:16:29;6.50;;;1.90;;
68144;SDS011;55400;51.824;-0.196;2023-09-19T09:20:28;4.30;;;1.90;;
68144;SDS011;55400;51.824;-0.196;2023-09-19T09:24:28;6.20;;;2.10;;
68144;SDS011;55400;51.824;-0.196;2023-09-19T09:28:30;6.00;;;1.80;;
68144;SDS011;55400;51.824;-0.196;2023-09-19T09:32:29;7.40;;;2.50;;
68144;SDS011;55400;51.824;-0.196;2023-09-19T09:36:36;4.90;;;1.80;;
68144;SDS011;55400;51.824;-0.196;2023-09-19T09:40:45;7.00;;;1.80;;
68144;SDS011;55400;51.824;-0.196;2023-09-19T09:44:28;10.50;;;2.30;;
68144;SDS011;55400;51.824;-0.196;2023-09-19T09:48:29;5.90;;;2.00;;
68144;SDS011;55400;51.824;-0.196;2023-09-19T09:52:28;5.70;;;1.90;;
68144;SDS011;55400;51.824;-0.196;2023-09-19T09:56:31;3.50;;;1.70;;
68144;SDS011;55400;51.824;-0.196;2023-09-19T10:00:28;4.10;;;1.80;;
68144;SDS011;55400;51.824;-0.196;2023-09-19T10:04:28;5.20;;;1.80;;
68144;SDS011;55400;51.824;-0.196;2023-09-19T10:08:28;7.30;;;1.80;;
68144;SDS011;55400;51.824;-0.196;2023-09-19T10:12:28;4.10;;;1.70;;
68144;SDS011;55400;51.824;-0.196;2023-09-19T10:16:30;9.20;;;1.70;;
68144;SDS011;55400;51.824;-0.196;2023-09-19T10:20:28;6.70;;;1.80;;
68144;SDS011;55400;51.824;-0.196;2023-09-19T10:24:28;6.00;;;1.90;;
68144;SDS011;55400;51.824;-0.196;2023-09-19T10:28:30;5.50;;;1.70;;
68144;SDS011;55400;51.824;-0.196;2023-09-19T10:32:29;5.50;;;2.10;;
68144;SDS011;55400;51.824;-0.196;2023-09-19T10:36:32;5.90;;;2.20;;
68144;SDS011;55400;51.824;-0.196;2023-09-19T10:40:28;5.30;;;2.10;;
68144;SDS011;55400;51.824;-0.196;2023-09-19T10:44:32;9.30;;;2.40;;
68144;SDS011;55400;51.824;-0.196;2023-09-19T10:48:28;6.30;;;2.30;;
68144;SDS011;55400;51.824;-0.196;2023-09-19T10:52:28;9.30;;;2.40;;
68144;SDS011;55400;51.824;-0.196;2023-09-19T10:56:31;6.10;;;2.40;;
68144;SDS011;55400;51.824;-0.196;2023-09-19T11:00:29;10.20;;;2.60;;
68144;SDS011;55400;51.824;-0.196;2023-09-19T11:04:29;7.70;;;2.40;;
68144;SDS011;55400;51.824;-0.196;2023-09-19T11:08:28;9.90;;;2.10;;
68144;SDS011;55400;51.824;-0.196;2023-09-19T11:16:28;6.70;;;2.30;;
68144;SDS011;55400;51.824;-0.196;2023-09-19T11:28:29;5.50;;;1.90;;
68144;SDS011;55400;51.824;-0.196;2023-09-19T11:36:35;6.50;;;2.10;;
68144;SDS011;55400;51.824;-0.196;2023-09-19T11:40:28;8.30;;;2.00;;
68144;SDS011;55400;51.824;-0.196;2023-09-19T11:44:33;5.90;;;1.90;;
68144;SDS011;55400;51.824;-0.196;2023-09-19T11:48:29;4.20;;;1.60;;
68144;SDS011;55400;51.824;-0.196;2023-09-19T11:52:31;6.00;;;1.70;;
68144;SDS011;55400;51.824;-0.196;2023-09-19T11:56:28;4.60;;;1.90;;
68144;SDS011;55400;51.824;-0.196;2023-09-19T12:00:28;3.50;;;1.40;;
68144;SDS011;55400;51.824;-0.196;2023-09-19T12:04:34;5.30;;;1.60;;
68144;SDS011;55400;51.824;-0.196;2023-09-19T12:08:28;6.30;;;1.80;;
68144;SDS011;55400;51.824;-0.196;2023-09-19T12:12:28;4.80;;;1.90;;
68144;SDS011;55400;51.824;-0.196;2023-09-19T12:16:28;4.90;;;1.80;;
68144;SDS011;55400;51.824;-0.196;2023-09-19T12:20:41;4.50;;;1.70;;
68144;SDS011;55400;51.824;-0.196;2023-09-19T12:24:28;4.40;;;1.60;;
68144;SDS011;55400;51.824;-0.196;2023-09-19T12:28:30;8.70;;;1.80;;
68144;SDS011;55400;51.824;-0.196;2023-09-19T12:32:36;6.20;;;1.80;;
68144;SDS011;55400;51.824;-0.196;2023-09-19T12:36:28;3.10;;;1.40;;
68144;SDS011;55400;51.824;-0.196;2023-09-19T12:40:29;9.10;;;1.90;;
68144;SDS011;55400;51.824;-0.196;2023-09-19T12:44:29;4.60;;;1.70;;
68144;SDS011;55400;51.824;-0.196;2023-09-19T12:48:28;4.20;;;1.70;;
68144;SDS011;55400;51.824;-0.196;2023-09-19T12:52:34;4.10;;;1.40;;
68144;SDS011;55400;51.824;-0.196;2023-09-19T12:56:39;3.50;;;1.30;;
68144;SDS011;55400;51.824;-0.196;2023-09-19T13:00:37;5.00;;;1.70;;
68144;SDS011;55400;51.824;-0.196;2023-09-19T13:04:28;3.50;;;1.80;;
68144;SDS011;55400;51.824;-0.196;2023-09-19T13:08:30;3.30;;;1.30;;
68144;SDS011;55400;51.824;-0.196;2023-09-19T13:12:37;2.90;;;1.30;;
68144;SDS011;55400;51.824;-0.196;2023-09-19T13:16:28;3.70;;;1.50;;
68144;SDS011;55400;51.824;-0.196;2023-09-19T13:20:28;2.90;;;1.50;;
68144;SDS011;55400;51.824;-0.196;2023-09-19T13:24:28;2.20;;;1.20;;
68144;SDS011;55400;51.824;-0.196;2023-09-19T13:32:28;5.40;;;1.50;;
68144;SDS011;55400;51.824;-0.196;2023-09-19T13:36:28;6.40;;;1.60;;
68144;SDS011;55400;51.824;-0.196;2023-09-19T13:40:29;3.00;;;1.10;;
68144;SDS011;55400;51.824;-0.196;2023-09-19T13:44:28;2.40;;;1.20;;
68144;SDS011;55400;51.824;-0.196;2023-09-19T13:48:28;2.40;;;1.20;;
68144;SDS011;55400;51.824;-0.196;2023-09-19T13:52:29;2.50;;;1.00;;
68144;SDS011;55400;51.824;-0.196;2023-09-19T13:56:28;2.00;;;1.10;;
68144;SDS011;55400;51.824;-0.196;2023-09-19T14:00:28;2.30;;;1.40;;
68144;SDS011;55400;51.824;-0.196;2023-09-19T14:04:29;5.10;;;1.60;;
68144;SDS011;55400;51.824;-0.196;2023-09-19T14:08:28;3.90;;;1.20;;
68144;SDS011;55400;51.824;-0.196;2023-09-19T14:12:28;3.10;;;1.30;;
68144;SDS011;55400;51.824;-0.196;2023-09-19T14:16:28;4.60;;;1.00;;
68144;SDS011;55400;51.824;-0.196;2023-09-19T14:20:28;2.20;;;1.20;;
68144;SDS011;55400;51.824;-0.196;2023-09-19T14:24:28;3.70;;;1.30;;
68144;SDS011;55400;51.824;-0.196;2023-09-19T14:28:29;2.60;;;1.20;;
68144;SDS011;55400;51.824;-0.196;2023-09-19T14:32:28;2.00;;;1.00;;
68144;SDS011;55400;51.824;-0.196;2023-09-19T14:36:28;2.10;;;1.00;;
68144;SDS011;55400;51.824;-0.196;2023-09-19T14:40:28;7.70;;;1.50;;
68144;SDS011;55400;51.824;-0.196;2023-09-19T14:45:35;2.40;;;1.30;;
68144;SDS011;55400;51.824;-0.196;2023-09-19T14:48:28;2.20;;;1.20;;
68144;SDS011;55400;51.824;-0.196;2023-09-19T14:52:29;2.20;;;1.00;;
68144;SDS011;55400;51.824;-0.196;2023-09-19T14:56:29;2.20;;;1.00;;
68144;SDS011;55400;51.824;-0.196;2023-09-19T15:00:29;2.60;;;1.40;;
68144;SDS011;55400;51.824;-0.196;2023-09-19T15:04:49;2.70;;;1.10;;
68144;SDS011;55400;51.824;-0.196;2023-09-19T15:09:39;2.90;;;1.20;;
68144;SDS011;55400;51.824;-0.196;2023-09-19T15:12:28;4.00;;;1.20;;
68144;SDS011;55400;51.824;-0.196;2023-09-19T15:16:37;2.90;;;1.00;;
68144;SDS011;55400;51.824;-0.196;2023-09-19T15:20:28;2.80;;;1.30;;
68144;SDS011;55400;51.824;-0.196;2023-09-19T15:24:29;4.20;;;1.60;;
68144;SDS011;55400;51.824;-0.196;2023-09-19T15:29:40;4.50;;;1.60;;
68144;SDS011;55400;51.824;-0.196;2023-09-19T15:32:29;3.80;;;1.40;;
68144;SDS011;55400;51.824;-0.196;2023-09-19T15:36:29;4.30;;;1.40;;
68144;SDS011;55400;51.824;-0.196;2023-09-19T15:40:33;4.00;;;1.40;;
68144;SDS011;55400;51.824;-0.196;2023-09-19T15:44:29;4.00;;;1.20;;
68144;SDS011;55400;51.824;-0.196;2023-09-19T15:48:29;3.40;;;1.20;;
68144;SDS011;55400;51.824;-0.196;2023-09-19T15:52:29;4.00;;;1.20;;
68144;SDS011;55400;51.824;-0.196;2023-09-19T15:56:34;1.70;;;0.90;;
68144;SDS011;55400;51.824;-0.196;2023-09-19T16:00:29;3.40;;;1.30;;
68144;SDS011;55400;51.824;-0.196;2023-09-19T16:04:29;3.90;;;1.30;;
68144;SDS011;55400;51.824;-0.196;2023-09-19T16:12:29;4.10;;;1.50;;
68144;SDS011;55400;51.824;-0.196;2023-09-19T16:16:29;3.40;;;1.30;;
68144;SDS011;55400;51.824;-0.196;2023-09-19T16:20:30;4.00;;;1.30;;
68144;SDS011;55400;51.824;-0.196;2023-09-19T16:24:29;3.00;;;1.20;;
68144;SDS011;55400;51.824;-0.196;2023-09-19T16:30:14;5.10;;;1.70;;
68144;SDS011;55400;51.824;-0.196;2023-09-19T16:32:42;2.80;;;1.10;;
68144;SDS011;55400;51.824;-0.196;2023-09-19T16:36:30;3.70;;;1.20;;
68144;SDS011;55400;51.824;-0.196;2023-09-19T16:40:29;3.20;;;1.30;;
68144;SDS011;55400;51.824;-0.196;2023-09-19T16:44:29;4.60;;;1.40;;
68144;SDS011;55400;51.824;-0.196;2023-09-19T16:48:29;3.10;;;1.10;;
68144;SDS011;55400;51.824;-0.196;2023-09-19T16:52:29;5.30;;;1.50;;
68144;SDS011;55400;51.824;-0.196;2023-09-19T16:56:29;5.20;;;1.50;;
68144;SDS011;55400;51.824;-0.196;2023-09-19T17:00:29;4.50;;;1.70;;
68144;SDS011;55400;51.824;-0.196;2023-09-19T17:04:29;3.70;;;1.40;;
68144;SDS011;55400;51.824;-0.196;2023-09-19T17:08:29;5.50;;;2.00;;
68144;SDS011;55400;51.824;-0.196;2023-09-19T17:12:29;6.50;;;1.80;;
68144;SDS011;55400;51.824;-0.196;2023-09-19T17:16:29;6.20;;;2.10;;
68144;SDS011;55400;51.824;-0.196;2023-09-19T17:20:29;7.10;;;2.20;;
68144;SDS011;55400;51.824;-0.196;2023-09-19T17:24:29;7.70;;;1.90;;
68144;SDS011;55400;51.824;-0.196;2023-09-19T17:28:29;7.10;;;2.00;;
68144;SDS011;55400;51.824;-0.196;2023-09-19T17:36:29;6.30;;;1.80;;
68144;SDS011;55400;51.824;-0.196;2023-09-19T17:40:29;6.20;;;1.80;;
68144;SDS011;55400;51.824;-0.196;2023-09-19T17:44:29;6.40;;;1.80;;
68144;SDS011;55400;51.824;-0.196;2023-09-19T17:48:29;6.60;;;1.90;;
68144;SDS011;55400;51.824;-0.196;2023-09-19T17:52:29;5.80;;;1.80;;
68144;SDS011;55400;51.824;-0.196;2023-09-19T17:56:29;6.00;;;1.80;;
68144;SDS011;55400;51.824;-0.196;2023-09-19T18:00:29;7.50;;;1.90;;
68144;SDS011;55400;51.824;-0.196;2023-09-19T18:04:29;3.90;;;1.30;;
68144;SDS011;55400;51.824;-0.196;2023-09-19T18:08:29;3.70;;;1.40;;
68144;SDS011;55400;51.824;-0.196;2023-09-19T18:12:29;5.60;;;1.40;;
68144;SDS011;55400;51.824;-0.196;2023-09-19T18:16:29;4.70;;;1.60;;
68144;SDS011;55400;51.824;-0.196;2023-09-19T18:24:29;4.70;;;1.70;;
68144;SDS011;55400;51.824;-0.196;2023-09-19T18:28:29;2.60;;;1.50;;
68144;SDS011;55400;51.824;-0.196;2023-09-19T18:32:29;6.20;;;1.80;;
68144;SDS011;55400;51.824;-0.196;2023-09-19T18:36:29;5.30;;;1.50;;
68144;SDS011;55400;51.824;-0.196;2023-09-19T18:40:29;4.10;;;1.50;;
68144;SDS011;55400;51.824;-0.196;2023-09-19T18:44:29;5.20;;;1.70;;
68144;SDS011;55400;51.824;-0.196;2023-09-19T18:48:29;4.90;;;1.80;;
68144;SDS011;55400;51.824;-0.196;2023-09-19T18:52:29;3.10;;;1.40;;
68144;SDS011;55400;51.824;-0.196;2023-09-19T18:56:30;4.20;;;1.60;;
68144;SDS011;55400;51.824;-0.196;2023-09-19T19:00:29;4.30;;;1.90;;
68144;SDS011;55400;51.824;-0.196;2023-09-19T19:04:29;4.50;;;1.40;;
68144;SDS011;55400;51.824;-0.196;2023-09-19T19:08:29;4.80;;;1.90;;
68144;SDS011;55400;51.824;-0.196;2023-09-19T19:12:29;3.20;;;1.50;;
68144;SDS011;55400;51.824;-0.196;2023-09-19T19:16:29;3.00;;;1.40;;
68144;SDS011;55400;51.824;-0.196;2023-09-19T19:20:29;5.40;;;1.70;;
68144;SDS011;55400;51.824;-0.196;2023-09-19T19:24:29;3.10;;;1.50;;
68144;SDS011;55400;51.824;-0.196;2023-09-19T19:28:30;4.60;;;1.50;;
68144;SDS011;55400;51.824;-0.196;2023-09-19T19:32:29;3.90;;;1.50;;
68144;SDS011;55400;51.824;-0.196;2023-09-19T19:36:29;3.00;;;1.00;;
68144;SDS011;55400;51.824;-0.196;2023-09-19T19:40:29;6.50;;;1.80;;
68144;SDS011;55400;51.824;-0.196;2023-09-19T19:44:29;4.80;;;1.40;;
68144;SDS011;55400;51.824;-0.196;2023-09-19T19:48:30;3.20;;;1.60;;
68144;SDS011;55400;51.824;-0.196;2023-09-19T19:52:29;5.00;;;1.30;;
68144;SDS011;55400;51.824;-0.196;2023-09-19T19:56:29;5.80;;;1.60;;
68144;SDS011;55400;51.824;-0.196;2023-09-19T20:00:29;4.10;;;1.60;;
68144;SDS011;55400;51.824;-0.196;2023-09-19T20:04:29;5.20;;;1.30;;
68144;SDS011;55400;51.824;-0.196;2023-09-19T20:08:30;4.50;;;1.30;;
68144;SDS011;55400;51.824;-0.196;2023-09-19T20:12:29;2.80;;;1.20;;
68144;SDS011;55400;51.824;-0.196;2023-09-19T20:16:30;3.00;;;1.10;;
68144;SDS011;55400;51.824;-0.196;2023-09-19T20:20:29;3.70;;;1.60;;
68144;SDS011;55400;51.824;-0.196;2023-09-19T20:24:29;3.70;;;1.60;;
68144;SDS011;55400;51.824;-0.196;2023-09-19T20:28:30;2.90;;;1.20;;
68144;SDS011;55400;51.824;-0.196;2023-09-19T20:32:30;1.90;;;1.10;;
68144;SDS011;55400;51.824;-0.196;2023-09-19T20:36:46;4.30;;;1.50;;
68144;SDS011;55400;51.824;-0.196;2023-09-19T20:40:30;4.30;;;1.50;;
68144;SDS011;55400;51.824;-0.196;2023-09-19T20:44:30;2.20;;;1.20;;
68144;SDS011;55400;51.824;-0.196;2023-09-19T20:48:30;3.60;;;0.90;;
68144;SDS011;55400;51.824;-0.196;2023-09-19T20:52:31;3.10;;;0.90;;
68144;SDS011;55400;51.824;-0.196;2023-09-19T20:56:31;3.20;;;0.90;;
68144;SDS011;55400;51.824;-0.196;2023-09-19T21:00:30;2.30;;;1.00;;
68144;SDS011;55400;51.824;-0.196;2023-09-19T21:04:30;3.10;;;0.80;;
68144;SDS011;55400;51.824;-0.196;2023-09-19T21:08:30;5.00;;;1.00;;
68144;SDS011;55400;51.824;-0.196;2023-09-19T21:12:30;2.80;;;1.10;;
68144;SDS011;55400;51.824;-0.196;2023-09-19T21:16:30;1.70;;;1.10;;
68144;SDS011;55400;51.824;-0.196;2023-09-19T21:20:32;3.20;;;1.10;;
68144;SDS011;55400;51.824;-0.196;2023-09-19T21:24:30;2.70;;;1.10;;
68144;SDS011;55400;51.824;-0.196;2023-09-19T21:28:30;4.50;;;0.90;;
68144;SDS011;55400;51.824;-0.196;2023-09-19T21:32:30;2.60;;;1.00;;
68144;SDS011;55400;51.824;-0.196;2023-09-19T21:36:31;3.00;;;0.90;;
68144;SDS011;55400;51.824;-0.196;2023-09-19T21:40:30;2.20;;;1.10;;
68144;SDS011;55400;51.824;-0.196;2023-09-19T21:44:30;1.90;;;1.00;;
68144;SDS011;55400;51.824;-0.196;2023-09-19T21:52:30;3.20;;;1.10;;
68144;SDS011;55400;51.824;-0.196;2023-09-19T21:56:30;2.70;;;1.00;;
68144;SDS011;55400;51.824;-0.196;2023-09-19T22:00:30;2.20;;;1.10;;
68144;SDS011;55400;51.824;-0.196;2023-09-19T22:04:30;3.70;;;1.20;;
68144;SDS011;55400;51.824;-0.196;2023-09-19T22:08:30;3.30;;;1.20;;
68144;SDS011;55400;51.824;-0.196;2023-09-19T22:12:30;3.10;;;1.10;;
68144;SDS011;55400;51.824;-0.196;2023-09-19T22:16:30;4.50;;;1.40;;
68144;SDS011;55400;51.824;-0.196;2023-09-19T22:20:30;2.50;;;1.20;;
68144;SDS011;55400;51.824;-0.196;2023-09-19T22:24:30;2.90;;;1.20;;
68144;SDS011;55400;51.824;-0.196;2023-09-19T22:28:30;4.40;;;1.10;;
68144;SDS011;55400;51.824;-0.196;2023-09-19T22:32:30;5.20;;;1.50;;
68144;SDS011;55400;51.824;-0.196;2023-09-19T22:36:30;4.10;;;1.10;;
68144;SDS011;55400;51.824;-0.196;2023-09-19T22:40:30;2.70;;;1.10;;
68144;SDS011;55400;51.824;-0.196;2023-09-19T22:48:30;3.40;;;1.30;;
68144;SDS011;55400;51.824;-0.196;2023-09-19T22:52:30;4.10;;;1.60;;
68144;SDS011;55400;51.824;-0.196;2023-09-19T22:56:30;3.20;;;1.40;;
68144;SDS011;55400;51.824;-0.196;2023-09-19T23:00:30;2.40;;;1.20;;
68144;SDS011;55400;51.824;-0.196;2023-09-19T23:04:30;2.70;;;1.10;;
68144;SDS011;55400;51.824;-0.196;2023-09-19T23:08:30;4.00;;;1.40;;
68144;SDS011;55400;51.824;-0.196;2023-09-19T23:12:30;6.10;;;1.70;;
68144;SDS011;55400;51.824;-0.196;2023-09-19T23:16:30;5.00;;;1.60;;
68144;SDS011;55400;51.824;-0.196;2023-09-19T23:20:30;2.60;;;1.00;;
68144;SDS011;55400;51.824;-0.196;2023-09-19T23:24:31;5.10;;;1.50;;
68144;SDS011;55400;51.824;-0.196;2023-09-19T23:28:30;2.50;;;1.20;;
68144;SDS011;55400;51.824;-0.196;2023-09-19T23:32:30;2.00;;;0.90;;
68144;SDS011;55400;51.824;-0.196;2023-09-19T23:36:30;5.80;;;1.50;;
68144;SDS011;55400;51.824;-0.196;2023-09-19T23:40:30;4.20;;;1.20;;
68144;SDS011;55400;51.824;-0.196;2023-09-19T23:44:30;1.70;;;1.00;;
68144;SDS011;55400;51.824;-0.196;2023-09-19T23:48:30;2.20;;;1.00;;
68144;SDS011;55400;51.824;-0.196;2023-09-19T23:52:30;2.70;;;1.30;;
